Time;durP1;ratioP1;P1;durP2;ratioP2;P2;SDS_P1;SDS_P2;PMS_P1;PMS_P2;Temp;Humidity;BMP_temperature;BMP_pressure;BME280_temperature;BME280_humidity;BME280_pressure;Samples;Min_cycle;Max_cycle;Signal;HPM_P1;HPM_P2
2023/09/30 05:18:32;;;;;;;;;;;;;;;;;;4864971;26;19925;-49
2023/09/30 05:20:57;;;;;;;;;;;;;;;;;;5050082;28;19936;-47
2023/09/30 05:23:24;;;;;;;;;;;;;;;;;;5050373;28;20027;-47
2023/09/30 05:25:50;;;;;;;;;;;;;;;;;;5049996;28;19917;-49
2023/09/30 05:28:16;;;;;;;;;;;;;;;;;;5050208;28;19909;-50
2023/09/30 05:30:43;;;;;;;;;;;;;;;;;;5050434;28;19944;-48
2023/09/30 05:33:14;;;;;;;;;;;;;;;;;;5047280;28;19920;-49
2023/09/30 05:35:40;;;;;;;;;;;;;;;;;;5047016;28;19915;-51
2023/09/30 05:38:06;;;;;;;;;;;;;;;;;;5049827;28;19936;-50
2023/09/30 05:40:32;;;;;;;;;;;;;;;;;;5050498;28;19913;-50
2023/09/30 05:42:58;;;;;;;;;;;;;;;;;;5049939;28;20505;-49
2023/09/30 05:45:24;;;;;;;;;;;;;;;;;;5049248;28;19912;-46
2023/09/30 05:47:52;;;;;;;;;;;;;;;;;;5048503;28;19963;-47
2023/09/30 05:50:20;;;;;;;;;;;;;;;;;;5050036;28;20329;-51
2023/09/30 05:52:46;;;;;;;;;;;;;;;;;;5052281;28;19909;-50
2023/09/30 05:55:12;;;;;;;;;;;;;;;;;;5053773;28;19956;-50
2023/09/30 05:57:38;;;;;;;;;;;;;;;;;;5053317;28;19958;-49
2023/09/30 06:00:14;;;;;;;;;;;;;;;;;;5052445;28;19913;-49
2023/09/30 06:02:40;;;;;;;;;;;;;;;;;;5053568;28;19955;-47
2023/09/30 06:05:06;;;;;;;;;;;;;;;;;;5053842;28;19909;-46
2023/09/30 06:07:33;;;;;;;;;;;;;;;;;;5053915;28;19913;-48
2023/09/30 06:10:02;;;;;;;;;;;;;;;;;;5052783;28;19999;-48
2023/09/30 06:12:28;;;;;;;;;;;;;;;;;;5052750;28;19945;-46
2023/09/30 06:14:54;;;;;;;;;;;;;;;;;;5052753;28;19913;-50
2023/09/30 06:17:22;;;;;;;;;;;;;;;;;;5045172;28;19936;-47
2023/09/30 06:19:50;;;;;;;;;;;;;;;;;;5047101;28;20327;-49
2023/09/30 06:22:16;;;;;;;;;;;;;;;;;;5039168;28;19991;-47
2023/09/30 06:24:42;;;;;;;;;;;;;;;;;;5053587;28;19992;-50
2023/09/30 06:27:10;;;;;;;;;;;;;;;;;;5052256;28;19924;-48
2023/09/30 06:29:36;;;;;;;;;;;;;;;;;;5051911;28;19967;-47
2023/09/30 06:32:01;;;;;;;;;;;;;;;;;;5053162;28;19912;-47
2023/09/30 06:34:27;;;;;;;;;;;;;;;;;;5052334;28;19921;-47
2023/09/30 06:36:54;;;;;;;;;;;;;;;;;;5051596;28;19909;-50
2023/09/30 06:39:20;;;;;;;;;;;;;;;;;;5052162;28;19952;-49
2023/09/30 06:41:46;;;;;;;;;;;;;;;;;;5052974;28;19908;-49
2023/09/30 06:44:12;;;;;;;;;;;;;;;;;;5047731;28;19959;-48
2023/09/30 06:46:39;;;;;;;;;;;;;;;;;;5052892;28;19967;-46
2023/09/30 06:49:05;;;;;;;;;;;;;;;;;;5052655;28;20406;-48
2023/09/30 06:51:31;;;;;;;;;;;;;;;;;;5050931;28;19913;-48
2023/09/30 06:53:56;;;;;;;;;;;;;;;;;;5050486;28;19944;-49
2023/09/30 06:56:22;;;;;;;;;;;;;;;;;;5052952;28;19908;-47
2023/09/30 06:58:48;;;;;;;;;;;;;;;;;;5049320;28;19982;-50
2023/09/30 07:01:14;;;;;;;;;;;;;;;;;;5051082;28;19920;-51
2023/09/30 07:03:40;;;;;;;;;;;;;;;;;;5052183;28;19916;-47
2023/09/30 07:06:06;;;;;;;;;;;;;;;;;;5052784;28;19958;-49
2023/09/30 07:08:32;;;;;;;;;;;;;;;;;;5051109;28;20294;-46
2023/09/30 07:10:58;;;;;;;;;;;;;;;;;;5051444;28;19916;-49
2023/09/30 07:13:24;;;;;;;;;;;;;;;;;;5050697;28;19992;-48
2023/09/30 07:15:50;;;;;;;;;;;;;;;;;;5051058;28;20004;-47
2023/09/30 07:18:16;;;;;;;;;;;;;;;;;;5050884;28;19913;-48
2023/09/30 07:20:42;;;;;;;;;;;;;;;;;;5049654;28;19970;-49
2023/09/30 07:23:09;;;;;;;;;;;;;;;;;;5051152;28;20337;-50
2023/09/30 07:25:34;;;;;;;;;;;;;;;;;;5051219;28;19916;-47
2023/09/30 07:28:00;;;;;;;;;;;;;;;;;;5050599;28;19912;-48
2023/09/30 07:30:26;;;;;;;;;;;;;;;;;;5050816;28;19916;-51
2023/09/30 07:32:52;;;;;;;;;;;;;;;;;;5050735;28;19915;-49
2023/09/30 07:35:18;;;;;;;;;;;;;;;;;;5050853;28;19912;-50
2023/09/30 07:37:44;;;;;;;;;;;;;;;;;;5049162;28;19916;-50
2023/09/30 07:40:10;;;;;;;;;;;;;;;;;;5050949;28;20303;-51
2023/09/30 07:42:36;;;;;;;;;;;;;;;;;;5050586;28;19973;-48
2023/09/30 07:45:03;;;;;;;;;;;;;;;;;;5050593;28;19909;-49
2023/09/30 07:47:30;;;;;;;;;;;;;;;;;;5050343;28;19913;-47
2023/09/30 07:49:56;;;;;;;;;;;;;;;;;;5050529;28;20295;-49
2023/09/30 07:52:22;;;;;;;;;;;;;;;;;;5050750;28;19910;-50
2023/09/30 07:54:48;;;;;;;;;;;;;;;;;;5050376;28;19909;-51
2023/09/30 07:57:14;;;;;;;;;;;;;;;;;;5050246;28;19939;-49
2023/09/30 07:59:40;;;;;;;;;;;;;;;;;;5050225;28;19931;-50
2023/09/30 08:02:06;;;;;;;;;;;;;;;;;;5050041;28;19908;-50
2023/09/30 08:04:32;;;;;;;;;;;;;;;;;;5050127;28;19919;-51
2023/09/30 08:06:58;;;;;;;;;;;;;;;;;;5050047;28;19916;-51
2023/09/30 08:09:24;;;;;;;;;;;;;;;;;;5050182;28;19909;-48
2023/09/30 08:11:50;;;;;;;;;;;;;;;;;;5049958;28;19923;-49
2023/09/30 08:14:16;;;;;;;;;;;;;;;;;;5047611;28;20371;-50
2023/09/30 08:16:42;;;;;;;;;;;;;;;;;;5050620;28;19971;-46
2023/09/30 08:19:08;;;;;;;;;;;;;;;;;;5049974;28;19935;-50
2023/09/30 08:21:34;;;;;;;;;;;;;;;;;;5050048;28;20315;-47
2023/09/30 08:24:00;;;;;;;;;;;;;;;;;;5049580;28;19909;-47
2023/09/30 08:26:26;;;;;;;;;;;;;;;;;;5049300;28;19913;-47
2023/09/30 08:28:52;;;;;;;;;;;;;;;;;;5049508;28;19909;-50
2023/09/30 08:31:18;;;;;;;;;;;;;;;;;;5049759;28;19909;-50
2023/09/30 08:33:45;;;;;;;;;;;;;;;;;;5049662;28;19932;-50
2023/09/30 08:36:11;;;;;;;;;;;;;;;;;;5050055;28;19909;-50
2023/09/30 08:38:37;;;;;;;;;;;;;;;;;;5049276;28;19909;-48
2023/09/30 08:41:03;;;;;;;;;;;;;;;;;;5049592;28;19920;-50
2023/09/30 08:43:31;;;;;;;;;;;;;;;;;;5049224;28;19920;-47
2023/09/30 08:45:57;;;;;;;;;;;;;;;;;;5049388;28;19919;-50
2023/09/30 08:48:24;;;;;;;;;;;;;;;;;;5049566;28;19991;-50
2023/09/30 08:50:50;;;;;;;;;;;;;;;;;;5048935;28;19971;-50
2023/09/30 08:53:16;;;;;;;;;;;;;;;;;;5047403;28;19913;-50
2023/09/30 08:55:42;;;;;;;;;;;;;;;;;;5046559;28;19948;-49
2023/09/30 08:58:08;;;;;;;;;;;;;;;;;;5049068;28;19978;-50
2023/09/30 09:00:33;;;;;;;;;;;;;;;;;;5049482;28;19967;-50
2023/09/30 09:02:59;;;;;;;;;;;;;;;;;;5046602;28;19928;-47
2023/09/30 09:05:25;;;;;;;;;;;;;;;;;;5045244;28;19920;-48
2023/09/30 09:07:51;;;;;;;;;;;;;;;;;;5045722;28;19917;-49
2023/09/30 09:10:18;;;;;;;;;;;;;;;;;;5049187;28;20291;-49
2023/09/30 09:12:44;;;;;;;;;;;;;;;;;;5049354;28;20086;-47
2023/09/30 09:15:10;;;;;;;;;;;;;;;;;;5048099;28;19913;-50
2023/09/30 09:17:36;;;;;;;;;;;;;;;;;;5049755;28;20391;-51
2023/09/30 09:20:04;;;;;;;;;;;;;;;;;;5050164;28;20387;-48
2023/09/30 09:22:30;;;;;;;;;;;;;;;;;;5050353;28;20307;-48
2023/09/30 09:24:56;;;;;;;;;;;;;;;;;;5049108;28;19909;-49
2023/09/30 09:27:23;;;;;;;;;;;;;;;;;;5052567;28;19913;-50
2023/09/30 09:29:49;;;;;;;;;;;;;;;;;;5054384;28;20375;-48
2023/09/30 09:32:15;;;;;;;;;;;;;;;;;;5054506;28;19916;-48
2023/09/30 09:34:41;;;;;;;;;;;;;;;;;;5053350;28;20426;-51
2023/09/30 09:37:07;;;;;;;;;;;;;;;;;;5053582;28;19991;-50
2023/09/30 09:39:34;;;;;;;;;;;;;;;;;;5054548;28;19931;-48
2023/09/30 09:42:01;;;;;;;;;;;;;;;;;;5038142;28;19916;-51
2023/09/30 09:44:27;;;;;;;;;;;;;;;;;;5035077;28;19913;-50
2023/09/30 09:46:53;;;;;;;;;;;;;;;;;;5035088;28;19913;-50
2023/09/30 09:49:19;;;;;;;;;;;;;;;;;;5034641;28;20392;-49
2023/09/30 09:51:44;;;;;;;;;;;;;;;;;;5034984;28;20000;-47
2023/09/30 09:54:10;;;;;;;;;;;;;;;;;;5044985;28;20318;-51
2023/09/30 09:56:36;;;;;;;;;;;;;;;;;;5054476;28;19921;-52
2023/09/30 09:59:04;;;;;;;;;;;;;;;;;;5054381;28;19916;-49
2023/09/30 10:01:30;;;;;;;;;;;;;;;;;;5053305;28;20335;-47
2023/09/30 10:03:55;;;;;;;;;;;;;;;;;;5036365;28;19944;-51
2023/09/30 10:06:22;;;;;;;;;;;;;;;;;;5053187;28;19956;-50
2023/09/30 10:08:48;;;;;;;;;;;;;;;;;;5054262;28;19909;-50
2023/09/30 10:11:14;;;;;;;;;;;;;;;;;;5054551;28;19909;-51
2023/09/30 10:13:40;;;;;;;;;;;;;;;;;;5054481;28;19909;-51
2023/09/30 10:16:06;;;;;;;;;;;;;;;;;;5052311;28;19912;-46
2023/09/30 10:18:32;;;;;;;;;;;;;;;;;;5053562;28;19952;-48
2023/09/30 10:20:58;;;;;;;;;;;;;;;;;;5053466;28;19917;-49
2023/09/30 10:23:27;;;;;;;;;;;;;;;;;;5053654;28;19909;-48
2023/09/30 10:25:57;;;;;;;;;;;;;;;;;;5053943;28;19916;-48
2023/09/30 10:28:23;;;;;;;;;;;;;;;;;;5053659;28;19916;-49
2023/09/30 10:30:49;;;;;;;;;;;;;;;;;;5053844;28;19913;-50
2023/09/30 10:33:14;;;;;;;;;;;;;;;;;;5054453;28;20381;-48
2023/09/30 10:35:41;;;;;;;;;;;;;;;;;;5053782;28;19955;-50
2023/09/30 10:38:07;;;;;;;;;;;;;;;;;;5052103;28;20542;-49
2023/09/30 10:40:33;;;;;;;;;;;;;;;;;;5052684;28;19912;-48
2023/09/30 10:42:59;;;;;;;;;;;;;;;;;;5054036;28;19920;-46
2023/09/30 10:45:24;;;;;;;;;;;;;;;;;;5053594;28;20000;-47
2023/09/30 10:47:50;;;;;;;;;;;;;;;;;;5053414;28;19920;-50
2023/09/30 10:50:16;;;;;;;;;;;;;;;;;;5053795;28;20366;-51
2023/09/30 10:52:42;;;;;;;;;;;;;;;;;;5051421;28;19962;-49
2023/09/30 10:55:08;;;;;;;;;;;;;;;;;;5044524;28;20442;-50
2023/09/30 10:57:34;;;;;;;;;;;;;;;;;;5051436;28;19912;-50
2023/09/30 11:00:00;;;;;;;;;;;;;;;;;;5047078;28;20356;-50
2023/09/30 11:02:26;;;;;;;;;;;;;;;;;;5051543;28;20307;-50
2023/09/30 11:04:52;;;;;;;;;;;;;;;;;;5051877;28;20007;-50
2023/09/30 11:07:17;;;;;;;;;;;;;;;;;;5053021;28;19924;-48
2023/09/30 11:09:43;;;;;;;;;;;;;;;;;;5053280;28;19909;-47
2023/09/30 11:12:10;;;;;;;;;;;;;;;;;;5053186;28;19951;-47
2023/09/30 11:14:36;;;;;;;;;;;;;;;;;;5051327;28;19919;-47
2023/09/30 11:17:04;;;;;;;;;;;;;;;;;;5050006;28;19999;-51
2023/09/30 11:19:30;;;;;;;;;;;;;;;;;;5052828;28;20275;-49
2023/09/30 11:21:58;;;;;;;;;;;;;;;;;;5052329;28;19982;-48
2023/09/30 11:24:24;;;;;;;;;;;;;;;;;;5051947;28;19919;-47
2023/09/30 11:26:49;;;;;;;;;;;;;;;;;;5051925;28;19917;-47
2023/09/30 11:29:19;;;;;;;;;;;;;;;;;;5051299;28;20011;-47
2023/09/30 11:31:45;;;;;;;;;;;;;;;;;;5052482;28;19956;-47
2023/09/30 11:34:11;;;;;;;;;;;;;;;;;;5050258;28;19952;-48
2023/09/30 11:36:37;;;;;;;;;;;;;;;;;;5049053;28;19913;-48
2023/09/30 11:39:03;;;;;;;;;;;;;;;;;;5052831;28;19909;-48
2023/09/30 11:41:29;;;;;;;;;;;;;;;;;;5052643;28;19935;-47
2023/09/30 11:43:55;;;;;;;;;;;;;;;;;;5051889;28;20354;-47
2023/09/30 11:46:20;;;;;;;;;;;;;;;;;;5052679;28;19916;-49
2023/09/30 11:48:46;;;;;;;;;;;;;;;;;;5051583;28;19909;-50
2023/09/30 11:51:12;;;;;;;;;;;;;;;;;;5052636;28;19924;-48
2023/09/30 11:53:40;;;;;;;;;;;;;;;;;;5050449;28;19913;-49
2023/09/30 11:56:09;;;;;;;;;;;;;;;;;;5049486;28;20359;-48
2023/09/30 11:58:36;;;;;;;;;;;;;;;;;;5048487;28;19913;-51
2023/09/30 12:01:02;;;;;;;;;;;;;;;;;;5050870;28;19931;-50
2023/09/30 12:03:28;;;;;;;;;;;;;;;;;;5050602;28;20387;-48
2023/09/30 12:05:55;;;;;;;;;;;;;;;;;;5048080;28;19916;-51
2023/09/30 12:08:21;;;;;;;;;;;;;;;;;;5049242;28;19912;-51
2023/09/30 12:10:46;;;;;;;;;;;;;;;;;;5044712;28;20300;-49
2023/09/30 12:13:12;;;;;;;;;;;;;;;;;;5047482;28;19917;-50
2023/09/30 12:15:38;;;;;;;;;;;;;;;;;;5044830;28;20419;-49
2023/09/30 12:18:05;;;;;;;;;;;;;;;;;;5043187;28;19913;-51
2023/09/30 12:20:30;;;;;;;;;;;;;;;;;;5046979;28;20288;-50
2023/09/30 12:22:56;;;;;;;;;;;;;;;;;;5045849;28;19921;-49
2023/09/30 12:25:24;;;;;;;;;;;;;;;;;;5047025;28;19917;-49
2023/09/30 12:27:50;;;;;;;;;;;;;;;;;;5047737;28;19916;-50
2023/09/30 12:30:20;;;;;;;;;;;;;;;;;;5046029;28;19913;-52
2023/09/30 12:32:45;;;;;;;;;;;;;;;;;;5047408;28;20379;-47
2023/09/30 12:35:11;;;;;;;;;;;;;;;;;;5046366;28;19916;-52
2023/09/30 12:37:38;;;;;;;;;;;;;;;;;;5046435;28;20469;-49
2023/09/30 12:40:06;;;;;;;;;;;;;;;;;;5045231;28;19963;-50
2023/09/30 12:42:34;;;;;;;;;;;;;;;;;;5046966;28;19913;-50
2023/09/30 12:45:00;;;;;;;;;;;;;;;;;;5047168;28;19913;-49
2023/09/30 12:47:26;;;;;;;;;;;;;;;;;;5045613;28;19920;-49
2023/09/30 12:49:54;;;;;;;;;;;;;;;;;;5046408;28;19913;-50
2023/09/30 12:52:19;;;;;;;;;;;;;;;;;;5046948;28;19921;-50
2023/09/30 12:54:46;;;;;;;;;;;;;;;;;;5046975;28;19967;-53
2023/09/30 12:57:17;;;;;;;;;;;;;;;;;;5047946;28;19913;-51
2023/09/30 12:59:44;;;;;;;;;;;;;;;;;;5045041;28;19913;-52
2023/09/30 13:02:11;;;;;;;;;;;;;;;;;;5045816;28;20444;-53
2023/09/30 13:04:42;;;;;;;;;;;;;;;;;;5048794;28;19916;-49
2023/09/30 13:07:08;;;;;;;;;;;;;;;;;;5045091;28;19916;-49
2023/09/30 13:09:34;;;;;;;;;;;;;;;;;;5047128;28;19935;-49
2023/09/30 13:12:00;;;;;;;;;;;;;;;;;;5046217;28;19921;-52
2023/09/30 13:14:27;;;;;;;;;;;;;;;;;;5046219;28;20011;-48
2023/09/30 13:16:54;;;;;;;;;;;;;;;;;;5041012;28;19932;-52
2023/09/30 13:19:21;;;;;;;;;;;;;;;;;;5041086;28;19921;-52
2023/09/30 13:21:47;;;;;;;;;;;;;;;;;;5044873;28;19917;-49
2023/09/30 13:24:13;;;;;;;;;;;;;;;;;;5046770;28;19917;-51
2023/09/30 13:26:39;;;;;;;;;;;;;;;;;;5046714;28;19916;-50
2023/09/30 13:29:05;;;;;;;;;;;;;;;;;;5044875;28;19946;-53
2023/09/30 13:31:31;;;;;;;;;;;;;;;;;;5043601;28;19967;-49
2023/09/30 13:33:57;;;;;;;;;;;;;;;;;;5043927;28;20378;-50
2023/09/30 13:36:23;;;;;;;;;;;;;;;;;;5045452;28;20003;-49
2023/09/30 13:38:49;;;;;;;;;;;;;;;;;;5047758;28;20319;-49
2023/09/30 13:41:15;;;;;;;;;;;;;;;;;;5044180;28;19960;-51
2023/09/30 13:43:41;;;;;;;;;;;;;;;;;;5043714;28;19958;-51
2023/09/30 13:46:07;;;;;;;;;;;;;;;;;;5045313;28;19920;-50
2023/09/30 13:48:33;;;;;;;;;;;;;;;;;;5047362;28;19960;-49
2023/09/30 13:50:59;;;;;;;;;;;;;;;;;;5043937;28;19921;-51
2023/09/30 13:53:25;;;;;;;;;;;;;;;;;;5045420;28;20011;-53
2023/09/30 13:55:51;;;;;;;;;;;;;;;;;;5049382;28;20034;-51
2023/09/30 13:58:17;;;;;;;;;;;;;;;;;;5042284;28;20429;-49
2023/09/30 14:00:43;;;;;;;;;;;;;;;;;;5048216;28;20011;-52
2023/09/30 14:03:09;;;;;;;;;;;;;;;;;;5049097;28;19909;-50
2023/09/30 14:05:35;;;;;;;;;;;;;;;;;;5049275;28;19908;-51
2023/09/30 14:08:02;;;;;;;;;;;;;;;;;;5048957;28;20319;-53
2023/09/30 14:10:29;;;;;;;;;;;;;;;;;;5040135;28;19962;-49
2023/09/30 14:12:55;;;;;;;;;;;;;;;;;;5031250;28;19916;-50
2023/09/30 14:15:21;;;;;;;;;;;;;;;;;;5048200;28;19909;-52
2023/09/30 14:17:47;;;;;;;;;;;;;;;;;;5052664;28;19951;-51
2023/09/30 14:20:13;;;;;;;;;;;;;;;;;;5051017;28;19923;-51
2023/09/30 14:22:38;;;;;;;;;;;;;;;;;;5052722;28;19986;-49
2023/09/30 14:25:04;;;;;;;;;;;;;;;;;;5052600;28;20375;-52
2023/09/30 14:27:30;;;;;;;;;;;;;;;;;;5048212;28;19944;-50
2023/09/30 14:29:56;;;;;;;;;;;;;;;;;;5052277;28;20355;-48
2023/09/30 14:32:23;;;;;;;;;;;;;;;;;;5053127;28;19909;-52
2023/09/30 14:34:49;;;;;;;;;;;;;;;;;;5050937;28;19912;-53
2023/09/30 14:37:15;;;;;;;;;;;;;;;;;;5052593;28;20344;-51
2023/09/30 14:39:40;;;;;;;;;;;;;;;;;;5050662;28;19910;-52
2023/09/30 14:42:06;;;;;;;;;;;;;;;;;;5046246;28;20353;-51
2023/09/30 14:44:33;;;;;;;;;;;;;;;;;;5041275;28;20371;-52
2023/09/30 14:46:59;;;;;;;;;;;;;;;;;;5051091;28;19920;-49
2023/09/30 14:49:24;;;;;;;;;;;;;;;;;;5050770;28;19908;-52
2023/09/30 14:51:50;;;;;;;;;;;;;;;;;;5051434;28;20338;-51
2023/09/30 14:54:16;;;;;;;;;;;;;;;;;;5050652;28;19909;-50
2023/09/30 14:56:42;;;;;;;;;;;;;;;;;;5050971;28;20000;-50
2023/09/30 14:59:08;;;;;;;;;;;;;;;;;;5050791;28;19909;-49
2023/09/30 15:01:34;;;;;;;;;;;;;;;;;;5051019;28;19923;-49
2023/09/30 15:04:00;;;;;;;;;;;;;;;;;;5050903;28;20307;-49
2023/09/30 15:06:28;;;;;;;;;;;;;;;;;;5049148;28;19956;-49
2023/09/30 15:08:54;;;;;;;;;;;;;;;;;;5051263;28;19913;-50
2023/09/30 15:11:20;;;;;;;;;;;;;;;;;;5051158;28;19915;-53
2023/09/30 15:13:46;;;;;;;;;;;;;;;;;;5048602;28;19928;-52
2023/09/30 15:16:12;;;;;;;;;;;;;;;;;;5051329;28;20403;-53
2023/09/30 15:18:37;;;;;;;;;;;;;;;;;;5049877;28;19909;-52
2023/09/30 15:21:03;;;;;;;;;;;;;;;;;;5049110;28;19917;-52
2023/09/30 15:23:32;;;;;;;;;;;;;;;;;;5050793;28;19988;-50
2023/09/30 15:25:58;;;;;;;;;;;;;;;;;;5049982;28;19912;-49
2023/09/30 15:28:23;;;;;;;;;;;;;;;;;;5050450;28;19917;-50
2023/09/30 15:30:49;;;;;;;;;;;;;;;;;;5050538;28;19952;-53
2023/09/30 15:33:17;;;;;;;;;;;;;;;;;;5050390;28;19909;-53
2023/09/30 15:35:43;;;;;;;;;;;;;;;;;;5050085;28;19909;-52
2023/09/30 15:38:09;;;;;;;;;;;;;;;;;;5036476;28;19917;-51
2023/09/30 15:40:35;;;;;;;;;;;;;;;;;;5051069;28;19913;-51
2023/09/30 15:43:01;;;;;;;;;;;;;;;;;;5051809;28;19954;-51
2023/09/30 15:45:27;;;;;;;;;;;;;;;;;;5051001;28;20327;-51
2023/09/30 15:47:53;;;;;;;;;;;;;;;;;;5034647;28;19964;-52
2023/09/30 15:50:18;;;;;;;;;;;;;;;;;;5040277;28;19913;-54
2023/09/30 15:52:44;;;;;;;;;;;;;;;;;;5050977;28;20012;-50
2023/09/30 15:55:11;;;;;;;;;;;;;;;;;;5050800;28;19920;-51
2023/09/30 15:57:37;;;;;;;;;;;;;;;;;;5050745;28;19996;-53
2023/09/30 16:00:03;;;;;;;;;;;;;;;;;;5051468;28;19930;-53
2023/09/30 16:02:29;;;;;;;;;;;;;;;;;;5050820;28;20406;-51
2023/09/30 16:04:54;;;;;;;;;;;;;;;;;;5049317;28;19908;-53
2023/09/30 16:07:20;;;;;;;;;;;;;;;;;;5042533;28;19917;-53
2023/09/30 16:09:46;;;;;;;;;;;;;;;;;;5030555;28;19916;-45
2023/09/30 16:12:13;;;;;;;;;;;;;;;;;;5049425;28;19909;-46
2023/09/30 16:14:39;;;;;;;;;;;;;;;;;;5050523;28;19916;-45
2023/09/30 16:17:05;;;;;;;;;;;;;;;;;;5051265;28;19916;-44
2023/09/30 16:19:31;;;;;;;;;;;;;;;;;;5050161;28;19956;-44
2023/09/30 16:21:57;;;;;;;;;;;;;;;;;;5048647;28;19956;-44
2023/09/30 16:24:23;;;;;;;;;;;;;;;;;;5044051;28;19913;-48
2023/09/30 16:26:48;;;;;;;;;;;;;;;;;;5041082;28;20383;-45
2023/09/30 16:29:14;;;;;;;;;;;;;;;;;;5049064;28;20376;-46
2023/09/30 16:31:41;;;;;;;;;;;;;;;;;;5039432;28;19921;-47
2023/09/30 16:34:06;;;;;;;;;;;;;;;;;;5049466;28;19983;-45
2023/09/30 16:36:32;;;;;;;;;;;;;;;;;;5049313;28;20159;-45
2023/09/30 16:38:58;;;;;;;;;;;;;;;;;;5048764;28;19916;-46
2023/09/30 16:41:24;;;;;;;;;;;;;;;;;;5047951;28;20399;-45
2023/09/30 16:43:50;;;;;;;;;;;;;;;;;;5049671;28;19961;-46
2023/09/30 16:46:16;;;;;;;;;;;;;;;;;;5048395;28;19913;-44
2023/09/30 16:48:43;;;;;;;;;;;;;;;;;;5049458;28;19935;-44
2023/09/30 16:51:10;;;;;;;;;;;;;;;;;;5048501;28;19916;-45
2023/09/30 16:53:37;;;;;;;;;;;;;;;;;;5050501;28;19909;-45
2023/09/30 16:56:03;;;;;;;;;;;;;;;;;;5048984;28;19913;-44
2023/09/30 16:58:29;;;;;;;;;;;;;;;;;;5049602;28;19917;-44
2023/09/30 17:00:55;;;;;;;;;;;;;;;;;;5049307;28;19916;-44
2023/09/30 17:03:22;;;;;;;;;;;;;;;;;;5049133;28;19908;-44
2023/09/30 17:05:48;;;;;;;;;;;;;;;;;;5048787;28;19913;-43
2023/09/30 17:08:13;;;;;;;;;;;;;;;;;;5043966;28;19961;-43
2023/09/30 17:10:40;;;;;;;;;;;;;;;;;;5049321;28;20378;-44
2023/09/30 17:13:06;;;;;;;;;;;;;;;;;;5048028;28;19920;-43
2023/09/30 17:15:32;;;;;;;;;;;;;;;;;;5032792;28;20405;-43
2023/09/30 17:17:58;;;;;;;;;;;;;;;;;;5043411;28;20414;-44
2023/09/30 17:20:24;;;;;;;;;;;;;;;;;;5048567;28;19921;-43
2023/09/30 17:22:50;;;;;;;;;;;;;;;;;;5047233;28;19913;-43
2023/09/30 17:25:19;;;;;;;;;;;;;;;;;;5048192;28;20300;-44
2023/09/30 17:27:45;;;;;;;;;;;;;;;;;;5044811;28;19921;-44
2023/09/30 17:30:11;;;;;;;;;;;;;;;;;;5047861;28;19913;-43
2023/09/30 17:32:37;;;;;;;;;;;;;;;;;;5045461;28;19917;-43
2023/09/30 17:35:03;;;;;;;;;;;;;;;;;;5039894;28;19908;-44
2023/09/30 17:37:29;;;;;;;;;;;;;;;;;;5044542;28;20263;-43
2023/09/30 17:39:55;;;;;;;;;;;;;;;;;;5042999;28;19913;-41
2023/09/30 17:42:22;;;;;;;;;;;;;;;;;;5045490;28;19958;-43
2023/09/30 17:44:48;;;;;;;;;;;;;;;;;;5046864;28;20268;-43
2023/09/30 17:47:14;;;;;;;;;;;;;;;;;;5047722;28;20014;-44
2023/09/30 17:49:40;;;;;;;;;;;;;;;;;;5049865;28;19920;-43
2023/09/30 17:52:06;;;;;;;;;;;;;;;;;;5050873;28;19917;-43
2023/09/30 17:54:32;;;;;;;;;;;;;;;;;;5051013;28;20315;-43
2023/09/30 17:56:58;;;;;;;;;;;;;;;;;;5050587;28;20395;-43
2023/09/30 17:59:23;;;;;;;;;;;;;;;;;;5049441;28;19980;-43
2023/09/30 18:01:49;;;;;;;;;;;;;;;;;;5046057;28;19990;-43
2023/09/30 18:04:15;;;;;;;;;;;;;;;;;;5043847;28;20003;-43
2023/09/30 18:06:41;;;;;;;;;;;;;;;;;;5045957;28;19917;-43
2023/09/30 18:09:10;;;;;;;;;;;;;;;;;;5044690;28;19913;-42
2023/09/30 18:11:36;;;;;;;;;;;;;;;;;;5044478;28;19938;-42
2023/09/30 18:14:02;;;;;;;;;;;;;;;;;;5042371;28;19913;-42
2023/09/30 18:16:29;;;;;;;;;;;;;;;;;;5039730;28;20383;-43
2023/09/30 18:18:55;;;;;;;;;;;;;;;;;;5044492;28;19913;-43
2023/09/30 18:21:21;;;;;;;;;;;;;;;;;;5045335;28;20398;-43
2023/09/30 18:23:47;;;;;;;;;;;;;;;;;;5045827;28;20229;-42
2023/09/30 18:26:13;;;;;;;;;;;;;;;;;;5041912;28;19912;-42
2023/09/30 18:28:39;;;;;;;;;;;;;;;;;;5043487;28;19917;-42
2023/09/30 18:31:05;;;;;;;;;;;;;;;;;;5043864;28;20360;-42
2023/09/30 18:33:31;;;;;;;;;;;;;;;;;;5044884;28;19917;-41
2023/09/30 18:35:58;;;;;;;;;;;;;;;;;;5045672;28;19920;-42
2023/09/30 18:38:24;;;;;;;;;;;;;;;;;;5045089;28;20247;-42
2023/09/30 18:40:50;;;;;;;;;;;;;;;;;;5043223;28;19921;-42
2023/09/30 18:43:16;;;;;;;;;;;;;;;;;;5046315;28;19913;-43
2023/09/30 18:45:42;;;;;;;;;;;;;;;;;;5047033;28;19912;-42
2023/09/30 18:48:08;;;;;;;;;;;;;;;;;;5044943;28;19970;-43
2023/09/30 18:50:34;;;;;;;;;;;;;;;;;;5045102;28;19916;-43
2023/09/30 18:53:00;;;;;;;;;;;;;;;;;;5045049;28;19943;-43
2023/09/30 18:55:26;;;;;;;;;;;;;;;;;;5047190;28;19912;-43
2023/09/30 18:57:52;;;;;;;;;;;;;;;;;;5043878;28;19974;-43
2023/09/30 19:00:20;;;;;;;;;;;;;;;;;;5046057;28;20145;-40
2023/09/30 19:02:45;;;;;;;;;;;;;;;;;;5047016;28;19943;-40
2023/09/30 19:05:13;;;;;;;;;;;;;;;;;;5047626;28;20347;-40
2023/09/30 19:07:39;;;;;;;;;;;;;;;;;;5048789;28;20299;-40
2023/09/30 19:10:05;;;;;;;;;;;;;;;;;;5047643;28;19999;-39
2023/09/30 19:12:31;;;;;;;;;;;;;;;;;;5044577;28;20470;-40
2023/09/30 19:14:57;;;;;;;;;;;;;;;;;;5048062;28;19923;-40
2023/09/30 19:17:23;;;;;;;;;;;;;;;;;;5047357;28;19915;-40
2023/09/30 19:19:49;;;;;;;;;;;;;;;;;;5046359;28;20020;-40
2023/09/30 19:22:15;;;;;;;;;;;;;;;;;;5044932;28;20039;-39
2023/09/30 19:24:43;;;;;;;;;;;;;;;;;;5047867;28;19913;-40
2023/09/30 19:27:10;;;;;;;;;;;;;;;;;;5046420;28;19924;-40
2023/09/30 19:29:35;;;;;;;;;;;;;;;;;;5048828;28;19912;-40
2023/09/30 19:32:01;;;;;;;;;;;;;;;;;;5046225;28;20447;-40
2023/09/30 19:34:28;;;;;;;;;;;;;;;;;;5045034;28;20395;-40
2023/09/30 19:36:54;;;;;;;;;;;;;;;;;;5046860;28;19920;-40
2023/09/30 19:39:20;;;;;;;;;;;;;;;;;;5044995;28;19913;-40
2023/09/30 19:41:45;;;;;;;;;;;;;;;;;;5046168;28;20356;-40
2023/09/30 19:44:12;;;;;;;;;;;;;;;;;;5045082;28;19912;-40
2023/09/30 19:46:37;;;;;;;;;;;;;;;;;;5047976;28;19923;-40
2023/09/30 19:49:03;;;;;;;;;;;;;;;;;;5048482;28;20365;-40
2023/09/30 19:51:29;;;;;;;;;;;;;;;;;;5046459;28;19917;-40
2023/09/30 19:53:55;;;;;;;;;;;;;;;;;;5047392;28;20387;-40
2023/09/30 19:56:21;;;;;;;;;;;;;;;;;;5047211;28;19908;-40
2023/09/30 19:58:47;;;;;;;;;;;;;;;;;;5046251;28;20343;-40
2023/09/30 20:01:13;;;;;;;;;;;;;;;;;;5046425;28;19951;-40
2023/09/30 20:03:39;;;;;;;;;;;;;;;;;;5045863;28;19927;-40
2023/09/30 20:06:05;;;;;;;;;;;;;;;;;;5047760;28;20035;-40
2023/09/30 20:08:31;;;;;;;;;;;;;;;;;;5040248;28;20020;-40
2023/09/30 20:10:57;;;;;;;;;;;;;;;;;;5042087;28;20012;-40
2023/09/30 20:13:23;;;;;;;;;;;;;;;;;;5045257;28;20349;-40
2023/09/30 20:15:49;;;;;;;;;;;;;;;;;;5044056;28;19940;-40
2023/09/30 20:18:15;;;;;;;;;;;;;;;;;;5045330;28;19909;-40
2023/09/30 20:20:40;;;;;;;;;;;;;;;;;;5043923;28;19920;-40
2023/09/30 20:23:06;;;;;;;;;;;;;;;;;;5046885;28;19912;-40
2023/09/30 20:25:32;;;;;;;;;;;;;;;;;;5046008;28;20454;-40
2023/09/30 20:28:00;;;;;;;;;;;;;;;;;;5043225;28;20809;-39
2023/09/30 20:30:26;;;;;;;;;;;;;;;;;;5044504;28;19913;-40
2023/09/30 20:32:52;;;;;;;;;;;;;;;;;;5045443;28;20438;-42
2023/09/30 20:35:18;;;;;;;;;;;;;;;;;;5045228;28;19920;-42
2023/09/30 20:37:44;;;;;;;;;;;;;;;;;;5047364;28;20404;-42
2023/09/30 20:40:13;;;;;;;;;;;;;;;;;;5046787;28;19915;-42
2023/09/30 20:42:39;;;;;;;;;;;;;;;;;;5043481;28;19917;-42
2023/09/30 20:45:05;;;;;;;;;;;;;;;;;;5047066;28;20371;-39
2023/09/30 20:47:31;;;;;;;;;;;;;;;;;;5047767;28;19924;-48
2023/09/30 20:49:57;;;;;;;;;;;;;;;;;;5046259;28;19912;-50
2023/09/30 20:52:23;;;;;;;;;;;;;;;;;;5046793;28;19952;-47
2023/09/30 20:54:49;;;;;;;;;;;;;;;;;;5045532;28;19926;-50
2023/09/30 20:57:15;;;;;;;;;;;;;;;;;;5044875;28;19917;-40
2023/09/30 20:59:41;;;;;;;;;;;;;;;;;;5045309;28;20287;-40
2023/09/30 21:02:07;;;;;;;;;;;;;;;;;;5047182;28;19943;-40
2023/09/30 21:04:33;;;;;;;;;;;;;;;;;;5046114;28;20223;-40
2023/09/30 21:06:59;;;;;;;;;;;;;;;;;;5046465;28;20360;-48
2023/09/30 21:09:25;;;;;;;;;;;;;;;;;;5045720;28;20163;-49
2023/09/30 21:11:53;;;;;;;;;;;;;;;;;;5046229;28;20368;-51
2023/09/30 21:14:19;;;;;;;;;;;;;;;;;;5045885;28;20280;-48
2023/09/30 21:16:45;;;;;;;;;;;;;;;;;;5046808;28;19954;-49
2023/09/30 21:19:11;;;;;;;;;;;;;;;;;;5045725;28;19912;-47
2023/09/30 21:21:38;;;;;;;;;;;;;;;;;;5048761;28;19920;-48
2023/09/30 21:24:05;;;;;;;;;;;;;;;;;;5046049;28;19909;-48
2023/09/30 21:26:31;;;;;;;;;;;;;;;;;;5051170;28;19925;-51
2023/09/30 21:28:57;;;;;;;;;;;;;;;;;;5038313;28;19916;-51
2023/09/30 21:31:24;;;;;;;;;;;;;;;;;;5032836;28;19963;-51
2023/09/30 21:33:49;;;;;;;;;;;;;;;;;;5047509;28;19948;-52
2023/09/30 21:36:15;;;;;;;;;;;;;;;;;;5050195;28;20432;-49
2023/09/30 21:38:42;;;;;;;;;;;;;;;;;;5043661;28;19957;-51
2023/09/30 21:41:08;;;;;;;;;;;;;;;;;;5032012;28;19910;-51
2023/09/30 21:43:33;;;;;;;;;;;;;;;;;;5045102;28;19909;-52
2023/09/30 21:45:59;;;;;;;;;;;;;;;;;;5051074;28;20011;-53
2023/09/30 21:48:25;;;;;;;;;;;;;;;;;;5050999;28;19912;-51
2023/09/30 21:50:51;;;;;;;;;;;;;;;;;;5051199;28;19937;-50
2023/09/30 21:53:18;;;;;;;;;;;;;;;;;;5050935;28;19909;-49
2023/09/30 21:55:44;;;;;;;;;;;;;;;;;;5036981;28;20003;-49